Address 0x3a93da588954acf4d0d8f1f1a4439fa79d84cf29 6

 
 
Txn Hash Method
Block
From
To
Value [Txn Fee]
0xc84ad677963ba877b2e4afeeaac31b15338ed9793913b525068e9471b3945071Transfer109595822021-09-16 8:33:5082 days 5 hrs ago0x3a93da588954acf4d0d8f1f1a4439fa79d84cf29OUT0x9b2e8e09bcbab368cbbecc457c1bcbae7570f4a20.004430025 BNB0.000105
0x62301b07211d6663fc759b1fedcd5ac79f8a236d7584ed205406aa84e765af5cTransfer109595702021-09-16 8:33:1482 days 5 hrs ago0x3a93da588954acf4d0d8f1f1a4439fa79d84cf29OUT aiRight: AIRI Token0 BNB0.000105855
0xa2f93f4f18e2c0b8bce3c813203a8c110a5f6a6bd4b1e5a8690f9581c23fc5afBuy Pack109565102021-09-16 6:00:1282 days 8 hrs ago0x3a93da588954acf4d0d8f1f1a4439fa79d84cf29OUT 0x1cdb477ad8f6b0994782a6a39c57bc1d6c5b78f70 BNB0.004694915
0xe19ae974371dae4fe04c2ba74de3a561399b95ec2648e204a663b26fe2fad9f8Buy Pack109541132021-09-16 4:00:1882 days 10 hrs ago0x3a93da588954acf4d0d8f1f1a4439fa79d84cf29OUT 0x1cdb477ad8f6b0994782a6a39c57bc1d6c5b78f70 BNB0.000443025
0x230571ed7efb36f2694d46eb9f0337426df70d657594dab110a7ec16692c677cApprove109517952021-09-16 2:04:2082 days 12 hrs ago0x3a93da588954acf4d0d8f1f1a4439fa79d84cf29OUT aiRight: AIRI Token0 BNB0.00022118
0x2a91c85c8554736a4523a0686c61bf33915816dcfaea5b1f5443dff0a8ba428cTransfer109517112021-09-16 2:00:0882 days 12 hrs ago0x9b2e8e09bcbab368cbbecc457c1bcbae7570f4a2 IN 0x3a93da588954acf4d0d8f1f1a4439fa79d84cf290.01 BNB0.000105
0x0d413905a53825f54414a089c56fcc53d1c9338bc667795a1b7c7d53c1cf1395Transfer98778772021-08-09 9:53:13120 days 4 hrs ago0x3a93da588954acf4d0d8f1f1a4439fa79d84cf29OUT0x9b2e8e09bcbab368cbbecc457c1bcbae7570f4a20.010758937931718 BNB0.000105
0x022ef1691b3101da6fe4b92420e7881a77e94b47f7c02892c3a693409d359e25Transfer98778572021-08-09 9:52:06120 days 4 hrs ago0x3a93da588954acf4d0d8f1f1a4439fa79d84cf29OUT0x9b2e8e09bcbab368cbbecc457c1bcbae7570f4a20 BNB0.000105
0xcfdd72d32c04a4f99adeeb88f12e6502015c8690cef795627ceff8edd749fa85Transfer98778512021-08-09 9:51:43120 days 4 hrs ago0x3a93da588954acf4d0d8f1f1a4439fa79d84cf29OUT aiRight: AIRI Token0 BNB0.000180975
0xa17b03b2e2ed473eef740ea17ba3506fea24ed585192b7e18fbd45ae51348e41Withdraw With Pe...98778102021-08-09 9:49:29120 days 4 hrs ago0x3a93da588954acf4d0d8f1f1a4439fa79d84cf29OUT 0x77f5872fb2ded020dcb22389b26fd321739ec1970 BNB0.000427835
0xd0a7c4658f350c3d29924d60782815c15473fe38478abc63a723c9391d8561f6Claim Faming98777972021-08-09 9:48:50120 days 4 hrs ago0x3a93da588954acf4d0d8f1f1a4439fa79d84cf29OUT 0x77f5872fb2ded020dcb22389b26fd321739ec1970 BNB0.00034216
0xced94566fb983c22346405ce6de795c9f333c70211970516646ac629b1856d06Transfer98776532021-08-09 9:41:38120 days 4 hrs ago0x3a93da588954acf4d0d8f1f1a4439fa79d84cf29OUT Binance: BUSD Stablecoin0 BNB0.000180575
0xd67b7112b3c1ad0f2e1e958a703f0f3cbb72efe21c2ffb12f44bbedab09ec7bbTransfer97864972021-08-06 3:26:24123 days 10 hrs ago0x3a93da588954acf4d0d8f1f1a4439fa79d84cf29OUT0xd23d94afe7369e29179cedd8e816638a2a0c114a0.01 BNB0.000105
0x13d2890d7af52d3cb9bd7f5aa22df55441a79892cc8a97b93fd34b3e2a5ebef2Transfer97864042021-08-06 3:21:19123 days 10 hrs ago0xd23d94afe7369e29179cedd8e816638a2a0c114a IN 0x3a93da588954acf4d0d8f1f1a4439fa79d84cf290.00820181 BNB0.000105
0x80b635696d490a15b91cbea7f93e5fad97676da07e77608ad4667f00511ecee2Deposit With Per...97461252021-08-04 16:53:00124 days 21 hrs ago0x3a93da588954acf4d0d8f1f1a4439fa79d84cf29OUT 0x77f5872fb2ded020dcb22389b26fd321739ec1970 BNB0.0006195
0xffed8ef2a4bc8f02cbe6e8cd2733d0f07edc90eddd6b99963c339d2f41f67a95Swap Exact Token...97460842021-08-04 16:50:57124 days 21 hrs ago0x3a93da588954acf4d0d8f1f1a4439fa79d84cf29OUT PancakeSwap: Router v20 BNB0.00082042
0x61bb638e7907b744e7c26af90c60f6e042cfc3664f1254ad9518e802e5cda692Swap Exact Token...97460692021-08-04 16:50:12124 days 21 hrs ago0x3a93da588954acf4d0d8f1f1a4439fa79d84cf29OUT PancakeSwap: Router v20 BNB0.00062506
0xb3bec60d8e4828b71c470772b8e45b5acddcee1e005702fc522e4e5f983cf03aApprove97460532021-08-04 16:49:24124 days 21 hrs ago0x3a93da588954acf4d0d8f1f1a4439fa79d84cf29OUT Mdex: MDX Token0 BNB0.00022312
0xd6f8d34e01fe59250f0e95c15ae13766e9fa8c1dc43eb02bdfb307a72989f214Harvest97460012021-08-04 16:46:48124 days 21 hrs ago0x3a93da588954acf4d0d8f1f1a4439fa79d84cf29OUT 0x28c37c9a4ae0ab9e5ccea5376c7adaf5ad52af710 BNB0.00138275
0xc7321af75d8cc89dca68d5ddf71a9f4fe6dc03717bbfd4d9d7e226029ebdc704Swap Exact Token...97459792021-08-04 16:45:42124 days 21 hrs ago0x3a93da588954acf4d0d8f1f1a4439fa79d84cf29OUT PancakeSwap: Router v20 BNB0.00081939
0x54715e103ec5a1c437b0edc4cbfce3a2ae720521baf804fcd87fc4998ecc1262Approve97459712021-08-04 16:45:18124 days 21 hrs ago0x3a93da588954acf4d0d8f1f1a4439fa79d84cf29OUT Rabbit Finance: RABBIT Token0 BNB0.00022203
0xa9d5594259623a013bfc863b33cdb20d8ea6649cf404283e474d9f6bda37b47dWork97459392021-08-04 16:43:42124 days 21 hrs ago0x3a93da588954acf4d0d8f1f1a4439fa79d84cf29OUT 0xc18907269640d11e2a91d7204f33c5115ce3419e0 BNB0.00417044
0x06dcba7bb994b48ae3c3f0e0146f52e1339e65a79045c56a917aee097b687b8fDeposit With Per...97415982021-08-04 12:57:52125 days 1 hr ago0x3a93da588954acf4d0d8f1f1a4439fa79d84cf29OUT 0x77f5872fb2ded020dcb22389b26fd321739ec1970 BNB0.00072487
0xe93a3a01de18b7bdc24c364382d29e785bcaf68b363b338918fe55515c562bf6Approve97415822021-08-04 12:57:04125 days 1 hr ago0x3a93da588954acf4d0d8f1f1a4439fa79d84cf29OUT aiRight: AIRI Token0 BNB0.00022088
0x7331a90a86a44c90d89ec8e18ec17e85d4c14424b6c7769034babdc98fe3852eSwap Exact Token...97192092021-08-03 17:41:40125 days 20 hrs ago0x3a93da588954acf4d0d8f1f1a4439fa79d84cf29OUT PancakeSwap: Router v20 BNB0.00082036
[ Download CSV Export 
Latest 1 internal transaction
Parent Txn Hash Block From To Value
0x61bb638e7907b744e7c26af90c60f6e042cfc3664f1254ad9518e802e5cda69297460692021-08-04 16:50:12124 days 21 hrs ago PancakeSwap: Router v20x3a93da588954acf4d0d8f1f1a4439fa79d84cf290.010105677931718446 BNB
[ Download CSV Export 
Loading

Contract Name:
0 BNB

Compiler Version
0

Optimization Enabled:
0 BNB

Other Settings:
-NA-
Block Transaction Gas Used Reward
Age Block Fee Address BC Fee Address Voting Power Jailed Incoming
Block Uncle Number Difficulty Gas Used Reward
Loading
Loading
Make sure to use the "Vote Down" button for any spammy posts, and the "Vote Up" for interesting conversations.